Weather observations for the past three days for
Buffalo, Buffalo Municipal Airport
Imperial (Metric)
Date Time (cdt) Wind (mph) Vis. (mi.) Weather Sky Cond. Temperature (ºF) Relative Humidity Wind Chill (°F) Heat Index (°F) Pressure Precipitation (in)
Air Dwpt 6 hour altimeter (in) sea level (mb) 1 hr 3 hr 6 hr
Max. Min.
10 06:15 N 7 10.00 Overcast FEW070 OVC100 41 32 70% 37 30.08 0.0
10 05:55 NW 5 10.00 Overcast OVC095 41 32 70% 38 30.07 0.0
10 05:35 Calm 10.00 Overcast FEW070 SCT080 OVC090 37.4 30.2 75% 30.06 0.0
10 05:15 Calm 10.00 Overcast FEW080 OVC090 37.4 30.2 75% 30.05 0.0
10 04:55 Calm 10.00 Overcast FEW080 OVC090 35.6 30.2 81% 30.04 0.0
10 04:35 Calm 10.00 Overcast FEW080 OVC090 35.6 30.2 81% 30.04 0.0
10 04:15 Calm 10.00 Mostly Cloudy BKN090 35.6 28.4 75% 30.03 0.0
10 03:55 Calm 10.00 Mostly Cloudy FEW035 SCT075 BKN090 35.6 28.4 75% 30.02 0.0
10 03:35 Calm 10.00 Overcast SCT080 OVC090 37.4 28.4 70% 30.02 0.0
10 03:15 Calm 10.00 Overcast OVC085 35.6 28.4 75% 30.01 0.0
10 02:55 Calm 10.00 Overcast SCT080 OVC090 37.4 28.4 70% 30 0.0
10 02:35 SW 3 10.00 Overcast SCT075 OVC090 37.4 28.4 70% 30 0.0
10 02:15 Calm 10.00 Overcast FEW036 SCT075 OVC090 35.6 30.2 81% 30 0.0
10 01:55 Calm 10.00 Mostly Cloudy FEW033 SCT038 BKN085 35.6 26.6 70% 30 0.0
10 01:35 Calm 10.00 Mostly Cloudy SCT036 SCT042 BKN090 39.2 30.2 70% 30 0.0
10 01:15 Calm 10.00 Overcast OVC090 39.2 28.4 65% 30 0.0
10 00:55 Calm 10.00 Overcast FEW075 OVC090 42.8 28.4 57% 30 0.0
10 00:35 Calm 10.00 Overcast BKN075 OVC090 44.6 26.6 49% 29.99 0.0
10 00:15 Calm 10.00 Overcast BKN075 OVC085 46.4 24.8 43% 29.99 0.0
09 23:55 Calm 10.00 Overcast BKN075 OVC085 46.4 24.8 43% 29.99 0.0
09 23:35 Calm 10.00 Overcast BKN075 OVC085 46.4 24.8 43% 29.99 0.0
09 23:15 Calm 10.00 Overcast OVC080 44.6 24.8 46% 29.99 0.0
09 22:55 Calm 10.00 Mostly Cloudy FEW038 FEW049 BKN080 46.4 23 40% 29.98 0.0
09 22:35 NW 6 10.00 Mostly Cloudy SCT043 BKN050 BKN060 48.2 23 37% 46 29.98 0.0
09 22:15 NW 7 10.00 Mostly Cloudy FEW037 SCT044 BKN050 50 23 35% 48 29.97 0.0
09 21:55 NW 8 10.00 Mostly Cloudy FEW037 BKN045 BKN050 50 23 35% 47 29.97 0.0
09 21:35 NW 9 10.00 Mostly Cloudy FEW039 SCT055 BKN085 51.8 23 32% 29.95 0.0
09 21:15 NW 9 10.00 Partly Cloudy FEW055 SCT090 51.8 23 32% 29.94 0.0
09 20:55 NW 8 G 17 10.00 Fair CLR 51.8 21.2 30% 29.93 0.0
09 20:35 NW 12 10.00 Fair CLR 53.6 23 30% 29.92 0.0
09 20:15 NW 12 10.00 Fair CLR 53.6 23 30% 29.9 0.0
09 19:55 NW 13 G 23 10.00 Partly Cloudy SCT080 55.4 21.2 26% 29.9 0.0
09 19:35 NW 16 G 25 10.00 Partly Cloudy SCT080 55.4 23 28% 29.89 0.0
09 19:15 NW 15 G 23 10.00 Fair CLR 57.2 21.2 25% 29.88 0.0
09 18:55 NW 16 G 23 10.00 Fair CLR 57.2 23 27% 29.88 0.0
09 18:35 NW 15 G 26 10.00 Partly Cloudy SCT080 57.2 23 27% 29.87 0.0
09 18:15 NW 20 10.00 Partly Cloudy SCT080 57.2 23 27% 29.86 0.0
09 17:55 NW 17 G 25 10.00 A Few Clouds FEW080 59 23 25% 29.86 0.0
09 17:35 NW 17 10.00 A Few Clouds FEW080 59 23 25% 29.85 0.0
09 17:15 N 18 10.00 A Few Clouds FEW080 59 23 25% 29.85 0.0
09 16:55 NW 16 10.00 Fair CLR 59 23 25% 29.85 0.0
09 16:35 NW 16 G 26 10.00 Fair CLR 59 23 25% 29.85 0.0
09 16:15 N 17 G 23 10.00 Fair CLR 59 23 25% 29.84 0.0
09 15:55 N 18 G 40 10.00 Fair CLR 59 24.8 27% 29.83 0.0
09 15:35 NW 14 G 25 10.00 Fair CLR 59 24.8 27% 29.83 0.0
09 15:15 NW 21 G 28 10.00 Fair and Breezy CLR 57.2 23 27% 29.83 0.0
09 14:55 N 18 G 26 10.00 Fair CLR 59 24.8 27% 29.83 0.0
09 14:35 N 16 G 24 10.00 Fair CLR 59 23 25% 29.82 0.0
09 14:15 N 16 G 24 10.00 Fair CLR 57.2 24.8 29% 29.82 0.0
09 13:55 N 23 10.00 Fair and Breezy CLR 59 24.8 27% 29.82 0.0
09 13:35 N 17 G 31 10.00 Fair CLR 57.2 24.8 29% 29.82 0.0
09 13:15 NW 16 G 26 10.00 Fair CLR 57.2 26.6 31% 29.81 0.0
09 12:55 N 20 10.00 Fair CLR 57.2 26.6 31% 29.81 0.0
09 12:35 NW 17 G 26 10.00 Fair CLR 55.4 26.6 33% 29.8 0.0
09 12:15 NW 15 G 26 10.00 Fair CLR 55.4 26.6 33% 29.8 0.0
09 11:55 NW 17 10.00 A Few Clouds FEW055 55.4 28.4 36% 29.79 0.0
09 11:35 N 18 10.00 A Few Clouds FEW050 55.4 28.4 36% 29.79 0.0
09 11:15 N 15 G 28 10.00 A Few Clouds FEW050 53.6 28.4 38% 29.78 0.0
09 10:55 N 22 G 29 10.00 A Few Clouds and Breezy FEW050 55.4 30.2 38% 29.78 0.0
09 10:35 NW 17 G 25 10.00 Fair CLR 53.6 28.4 38% 29.77 0.0
09 10:15 N 15 G 23 10.00 Fair CLR 53.6 32 44% 29.76 0.0
09 09:55 N 17 G 25 10.00 Fair CLR 53.6 30.2 41% 29.75 0.0
09 09:35 N 15 G 21 10.00 Fair CLR 51.8 33.8 50% 29.74 0.0
09 09:15 N 16 G 25 10.00 Fair CLR 51.8 33.8 50% 29.74 0.0
09 08:55 N 16 G 22 10.00 Fair CLR 51.8 35.6 54% 29.73 0.0
09 08:35 N 17 G 23 10.00 Fair CLR 50 37.4 62% 45 29.72 0.0
09 08:15 NW 16 10.00 Fair CLR 50 39.2 67% 45 29.72 0.0
09 07:55 N 13 10.00 Fair CLR 50 41 71% 46 29.7 0.0
09 07:35 N 10 10.00 Partly Cloudy SCT017 SCT022 SCT044 48.2 41 76% 44 29.69 0.0
09 07:15 NW 17 10.00 Overcast BKN019 BKN025 OVC042 48.2 42.8 82% 42 29.68 0.0
09 06:55 NW 12 G 20 10.00 Mostly Cloudy BKN021 BKN026 48.2 42.8 82% 44 29.68 0.0
09 06:35 NW 16 G 22 10.00 Overcast OVC023 48.2 42.8 82% 43 29.66 0.0
09 06:15 NW 10 10.00 Overcast FEW020 OVC025 50 44.6 82% 46 29.65 0.0
09 05:55 NW 10 10.00 Overcast FEW019 BKN028 OVC055 50 44.6 82% 46 29.64 0.0
09 05:35 W 7 10.00 Mostly Cloudy FEW028 SCT046 BKN060 50 44.6 82% 48 29.62 0.0
09 05:15 W 6 9.00 Light Rain BKN060 OVC065 50 44.6 82% 48 29.61 0.0
09 04:55 NW 5 10.00 Overcast FEW043 OVC055 50 44.6 82% 49 29.62 0.0
09 04:35 Calm 10.00 Light Rain FEW032 SCT040 OVC055 50 42.8 76% 29.61 0.0
09 04:15 NW 8 10.00 Light Rain FEW039 BKN055 OVC070 51.8 42.8 72% 29.63 0.0
09 03:55 NW 8 10.00 Overcast OVC070 51.8 41 67% 29.63 0.0
09 03:35 N 13 G 20 10.00 Overcast OVC070 51.8 41 67% 29.62 0.0
09 03:15 N 13 10.00 Overcast SCT075 OVC090 51.8 39.2 62% 29.62 0.0
09 02:55 N 10 10.00 Mostly Cloudy FEW031 FEW047 BKN095 51.8 33.8 50% 29.61 0.0
09 02:35 NW 8 10.00 Mostly Cloudy FEW033 SCT049 BKN085 51.8 30.2 44% 29.61 0.0
09 02:15 N 13 10.00 Overcast FEW075 OVC085 48.2 32 54% 43 29.61 0.0
09 01:55 Calm 10.00 Overcast FEW075 OVC085 48.2 30.2 50% 29.6 0.0
09 01:35 Calm 10.00 Overcast OVC090 48.2 30.2 50% 29.6 0.0
09 01:15 Calm 10.00 Overcast FEW038 BKN095 OVC110 46.4 28.4 50% 29.6 0.0
09 00:55 Calm 10.00 Mostly Cloudy SCT035 BKN041 BKN049 44.6 28.4 53% 29.6 0.0
09 00:35 Calm 10.00 Mostly Cloudy SCT038 SCT046 BKN050 44.6 28.4 53% 29.59 0.0
09 00:15 Calm 10.00 Mostly Cloudy SCT034 BKN042 BKN055 48.2 26.6 43% 29.61 0.0
08 23:55 Calm 10.00 Mostly Cloudy SCT033 BKN040 BKN050 46.4 28.4 50% 29.62 0.0
08 23:35 SW 5 10.00 Mostly Cloudy FEW031 SCT039 BKN046 48.2 30.2 50% 47 29.62 0.0
08 23:15 Calm 10.00 Mostly Cloudy FEW029 BKN038 BKN046 51.8 26.6 38% 29.63 0.0
08 22:55 Calm 10.00 Mostly Cloudy SCT026 BKN036 BKN044 55.4 24.8 31% 29.63 0.0
08 22:35 NW 6 10.00 Mostly Cloudy BKN025 BKN041 BKN050 55.4 24.8 31% 29.63 0.0
08 22:15 NW 6 10.00 Mostly Cloudy FEW021 SCT025 BKN044 57.2 24.8 29% 29.63 0.0
08 21:55 NW 9 10.00 Partly Cloudy FEW030 FEW036 SCT041 57.2 24.8 29% 29.63 0.0
08 21:35 NW 10 10.00 Partly Cloudy FEW029 SCT039 59 24.8 27% 29.62 0.0
08 21:15 NW 15 G 23 10.00 Fair CLR 60.8 26.6 27% 29.62 0.0
08 20:55 NW 15 G 24 10.00 Fair CLR 60.8 26.6 27% 29.61 0.0
08 20:35 NW 14 G 22 10.00 Fair CLR 62.6 28.4 27% 29.6 0.0
08 20:15 NW 15 G 23 10.00 Fair CLR 64.4 28.4 26% 29.59 0.0
08 19:55 NW 17 10.00 Fair CLR 66.2 26.6 22% 29.58 0.0
08 19:35 NW 20 G 26 10.00 A Few Clouds FEW100 66.2 26.6 22% 29.57 0.0
08 19:15 NW 13 G 23 10.00 Partly Cloudy SCT100 68 24.8 20% 29.57 0.0
08 18:55 NW 22 G 30 10.00 A Few Clouds and Breezy FEW110 68 24.8 20% 29.57 0.0
08 18:35 W 14 G 22 10.00 Mostly Cloudy BKN110 68 26.6 21% 29.57 0.0
08 18:15 W 15 G 24 10.00 Partly Cloudy SCT110 68 26.6 21% 29.57 0.0
08 17:55 W 18 10.00 Partly Cloudy SCT100 68 26.6 21% 29.57 0.0
08 17:35 W 15 G 23 10.00 Mostly Cloudy BKN100 69.8 26.6 20% 29.57 0.0
08 17:15 NW 15 G 23 10.00 Mostly Cloudy BKN100 69.8 26.6 20% 29.57 0.0
08 16:55 W 13 G 25 10.00 A Few Clouds FEW100 69.8 28.4 21% 29.58 0.0
08 16:35 W 15 10.00 Partly Cloudy SCT100 68 26.6 21% 29.58 0.0
08 16:15 W 13 G 21 10.00 Mostly Cloudy BKN100 69.8 28.4 21% 29.59 0.0
08 15:55 NW 12 G 21 10.00 Partly Cloudy SCT100 68 26.6 21% 29.59 0.0
08 15:35 W 13 G 23 10.00 A Few Clouds FEW110 69.8 26.6 20% 29.61 0.0
08 15:15 W 9 G 17 10.00 A Few Clouds FEW110 69.8 26.6 20% 29.62 0.0
08 14:55 W 14 10.00 A Few Clouds FEW110 68 26.6 21% 29.63 0.0
08 14:35 W 13 G 24 10.00 Partly Cloudy SCT110 68 24.8 20% 29.64 0.0
08 14:15 W 15 G 23 10.00 Partly Cloudy FEW095 SCT120 68 24.8 20% 29.64 0.0
08 13:55 W 7 10.00 Partly Cloudy SCT095 SCT120 66.2 24.8 21% 29.65 0.0
08 13:35 W 12 G 18 10.00 Partly Cloudy SCT100 66.2 24.8 21% 29.65 0.0
08 13:15 NW 9 G 16 10.00 Partly Cloudy SCT110 66.2 24.8 21% 29.67 0.0
08 12:55 NW 9 10.00 Mostly Cloudy BKN110 66.2 24.8 21% 29.67 0.0
08 12:35 NW 10 G 17 10.00 Partly Cloudy SCT110 66.2 24.8 21% 29.68 0.0
08 12:15 NW 12 G 17 3.00 Fair with Haze CLR 64.4 24.8 22% 29.69 0.0
08 11:55 W 10 10.00 Fair CLR 64.4 24.8 22% 29.7 0.0
08 11:35 W 8 10.00 Fair CLR 62.6 24.8 24% 29.71 0.0
08 11:15 Calm 10.00 Fair CLR 60.8 26.6 27% 29.71 0.0
08 10:55 Vrbl 5 G 13 10.00 Partly Cloudy SCT090 59 26.6 29% 29.72 0.0
08 10:35 W 8 10.00 Overcast OVC090 57.2 26.6 31% 29.73 0.0
08 10:15 W 8 10.00 Overcast OVC095 57.2 26.6 31% 29.73 0.0
08 09:55 SW 8 10.00 Overcast OVC095 55.4 26.6 33% 29.74 0.0
08 09:35 SW 10 10.00 Overcast OVC095 55.4 28.4 36% 29.74 0.0
08 09:15 SW 6 10.00 Partly Cloudy SCT095 53.6 28.4 38% 29.75 0.0
08 08:55 W 5 10.00 Partly Cloudy SCT100 51.8 28.4 41% 29.75 0.0
08 08:35 Calm 10.00 Overcast OVC100 48.2 30.2 50% 29.75 0.0
08 08:15 Calm 10.00 Overcast OVC100 46.4 28.4 50% 29.76 0.0
08 07:55 Calm 10.00 Overcast OVC100 44.6 28.4 53% 29.76 0.0
08 07:35 Calm 10.00 Overcast OVC100 42.8 28.4 57% 29.76 0.0
08 07:15 Calm 10.00 Mostly Cloudy BKN100 37.4 28.4 70% 29.76 0.0
08 06:55 Calm 10.00 Fair CLR 35.6 26.6 70% 29.75 0.0
08 06:35 Calm 10.00 Fair CLR 32 24.8 75% 29.75 0.0
08 06:15 Calm 10.00 Fair CLR 32 26.6 80% 29.75 0.0
08 05:55 Calm 10.00 Fair CLR 32 24.8 75% 29.75 0.0
08 05:35 Calm 10.00 A Few Clouds FEW030 FEW041 FEW055 32 23 69% 29.75 0.0
08 05:15 Calm 10.00 Partly Cloudy SCT031 SCT042 SCT055 32 23 69% 29.75 0.0
08 04:55 Calm 10.00 Mostly Cloudy BKN031 BKN041 BKN050 35.6 23 60% 29.76 0.0
08 04:35 Calm 10.00 Overcast BKN032 BKN040 OVC049 39.2 23 52% 29.76 0.0
08 04:15 SW 3 10.00 Mostly Cloudy SCT031 BKN037 BKN043 33.8 26.6 75% 29.76 0.0
08 03:55 Calm 10.00 Mostly Cloudy SCT031 SCT043 BKN055 35.6 23 60% 29.76 0.0
08 03:35 Calm 10.00 Mostly Cloudy FEW031 SCT044 BKN120 35.6 23 60% 29.76 0.0
08 03:15 Calm 10.00 Mostly Cloudy SCT033 BKN041 BKN050 35.6 26.6 70% 29.76 0.0
08 02:55 Calm 10.00 Mostly Cloudy FEW033 BKN043 BKN050 35.6 26.6 70% 29.76 0.0
08 02:35 Calm 10.00 Overcast FEW032 BKN044 OVC065 35.6 26.6 70% 29.77 0.0
08 02:15 Calm 10.00 Overcast SCT041 BKN046 OVC065 35.6 26.6 70% 29.77 0.0
08 01:55 Calm 10.00 Overcast FEW037 BKN045 OVC065 35.6 26.6 70% 29.77 0.0
08 01:35 Calm 10.00 Overcast FEW035 BKN044 OVC055 33.8 26.6 75% 29.78 0.0
08 01:15 Calm 10.00 Overcast FEW037 BKN045 OVC055 35.6 26.6 70% 29.78 0.0
08 00:55 Calm 10.00 Overcast FEW037 BKN045 OVC050 35.6 26.6 70% 29.78 0.0
08 00:35 Calm 10.00 Overcast FEW035 BKN041 OVC055 35.6 26.6 70% 29.79 0.0
08 00:15 Calm 10.00 Overcast FEW034 BKN042 OVC055 37.4 26.6 65% 29.79 0.0
07 23:55 Calm 10.00 Overcast SCT040 BKN046 OVC050 37.4 26.6 65% 29.79 0.0
07 23:35 Calm 10.00 Mostly Cloudy FEW033 SCT040 BKN047 37.4 26.6 65% 29.8 0.0
07 23:15 Calm 10.00 Overcast FEW035 BKN047 OVC055 39.2 24.8 56% 29.8 0.0
07 22:55 Calm 10.00 Overcast SCT042 BKN050 OVC055 37.4 26.6 65% 29.8 0.0
07 22:35 Calm 10.00 Mostly Cloudy FEW038 SCT044 BKN049 39.2 24.8 56% 29.8 0.0
07 22:15 Calm 10.00 Overcast FEW036 BKN044 OVC055 41 24.8 53% 29.8 0.0
07 21:55 Calm 10.00 Overcast SCT036 BKN043 OVC060 44.6 24.8 46% 29.81 0.0
07 21:35 Calm 10.00 Mostly Cloudy FEW037 SCT044 BKN055 44.6 24.8 46% 29.81 0.0
07 21:15 Calm 10.00 Mostly Cloudy FEW041 SCT050 BKN065 48.2 26.6 43% 29.8 0.0
07 20:55 W 3 10.00 Fair CLR 51.8 24.8 35% 29.8 0.0
07 20:35 W 3 10.00 Fair CLR 53.6 23 30% 29.79 0.0
07 20:15 W 5 10.00 Fair CLR 53.6 23 30% 29.79 0.0
07 19:55 W 8 10.00 Fair CLR 55.4 21.2 26% 29.79 0.0
07 19:35 W 9 10.00 Fair CLR 57.2 21.2 25% 29.79 0.0
07 19:15 W 10 G 20 10.00 Fair CLR 57.2 19.4 23% 29.79 0.0
07 18:55 W 15 10.00 Fair CLR 57.2 21.2 25% 29.79 0.0
07 18:35 W 9 G 16 10.00 A Few Clouds FEW085 57.2 21.2 25% 29.79 0.0
07 18:15 W 9 G 17 10.00 Partly Cloudy SCT090 57.2 19.4 23% 29.8 0.0
07 17:55 W 12 10.00 A Few Clouds FEW090 59 21.2 23% 29.8 0.0
07 17:35 NW 16 10.00 Fair CLR 59 19.4 21% 29.8 0.0
07 17:15 W 13 G 23 10.00 A Few Clouds FEW085 57.2 19.4 23% 29.81 0.0
07 16:55 NW 12 10.00 A Few Clouds FEW085 57.2 19.4 23% 29.81 0.0
07 16:35 NW 14 10.00 Fair CLR 57.2 19.4 23% 29.81 0.0
07 16:15 W 10 10.00 Fair CLR 57.2 17.6 21% 29.82 0.0
07 15:55 W 9 G 16 10.00 A Few Clouds FEW085 57.2 19.4 23% 29.82 0.0
07 15:35 W 12 G 17 10.00 A Few Clouds FEW085 57.2 19.4 23% 29.83 0.0
07 15:15 NW 15 G 21 10.00 A Few Clouds FEW085 55.4 17.6 23% 29.84 0.0
07 14:55 NW 9 G 18 10.00 Fair CLR 55.4 17.6 23% 29.84 0.0
07 14:35 W 13 10.00 Fair CLR 53.6 17.6 24% 29.85 0.0
07 14:15 W 14 10.00 Fair CLR 55.4 17.6 23% 29.85 0.0
07 13:55 W 13 10.00 Fair CLR 53.6 17.6 24% 29.86 0.0
07 13:35 NW 12 10.00 Fair CLR 53.6 17.6 24% 29.86 0.0
07 13:15 NW 10 10.00 Fair CLR 53.6 17.6 24% 29.87 0.0
07 12:55 NW 8 G 17 10.00 Fair CLR 51.8 15.8 24% 29.87 0.0
07 12:35 NW 13 10.00 Fair CLR 53.6 17.6 24% 29.88 0.0
07 12:15 N 8 10.00 Fair CLR 51.8 15.8 24% 29.88 0.0
07 11:55 N 8 10.00 Fair CLR 51.8 17.6 26% 29.88 0.0
07 11:35 W 8 10.00 Fair CLR 50 17.6 28% 47 29.89 0.0
07 11:15 W 9 10.00 Fair CLR 50 19.4 30% 47 29.9 0.0
07 10:55 Calm 10.00 Fair CLR 48.2 17.6 29% 29.9 0.0
07 10:35 Calm 10.00 Fair CLR 48.2 19.4 32% 29.9 0.0
07 10:15 Vrbl 5 10.00 Fair CLR 48.2 23 37% 47 29.9 0.0
07 09:55 S 6 10.00 Fair CLR 46.4 23 40% 44 29.9 0.0
07 09:35 Vrbl 5 10.00 Fair CLR 46.4 23 40% 45 29.9 0.0
07 09:15 S 3 10.00 Fair CLR 44.6 24.8 46% 29.91 0.0
07 08:55 W 3 10.00 Fair CLR 44.6 24.8 46% 29.91 0.0
07 08:35 Calm 10.00 Fair CLR 0 0 0% 29.91 0.0
07 08:15 Calm 0.00 Fair CLR 44.6 32 61% 29.91 0.0
07 07:55 Calm 10.00 Fair CLR 41 32 70% 29.91 0.0
07 07:35 Calm 10.00 Fair CLR 37.4 35.6 93% 29.92 0.0
07 07:15 Calm 10.00 Fair CLR 32 32 100% 29.92 0.0
07 06:55 Calm 10.00 Fair CLR 28.4 28.4 100% 29.91 0.0
Date Time (cdt) Wind (mph) Vis. (mi.) Weather Sky Cond. Air Dwpt Max. Min. Relative Humidity Wind Chill (°F) Heat Index (°F) altimeter (in) sea level (mb) 1 hr 3 hr 6 hr
6 hour
Temperature (ºF) Pressure Precipitation (in)